Time;durP1;ratioP1;P1;durP2;ratioP2;P2;SDS_P1;SDS_P2;PMS_P1;PMS_P2;Temp;Humidity;BMP_temperature;BMP_pressure;BME280_temperature;BME280_humidity;BME280_pressure;Samples;Min_cycle;Max_cycle;Signal;HPM_P1;HPM_P2
2022/09/26 00:01:27;;;;;;;;;;;25.50;99.90;;;;;;4145065;28;19932;-70
2022/09/26 00:03:56;;;;;;;;;;;25.50;99.90;;;;;;4144779;28;20312;-70
2022/09/26 00:08:55;;;;;;;;;;;25.60;99.90;;;;;;4144220;28;19929;-69
2022/09/26 00:13:37;;;;;;;;;;;25.60;99.90;;;;;;4144043;28;19925;-69
2022/09/26 00:27:24;;;;;;;;;;;25.80;99.90;;;;;;4144611;28;20406;-68
2022/09/26 00:38:01;;;;;;;;;;;25.60;99.90;;;;;;4143987;28;20540;-70
2022/09/26 00:40:22;;;;;;;;;;;25.70;99.90;;;;;;4142525;28;19948;-69
2022/09/26 00:42:45;;;;;;;;;;;25.50;99.90;;;;;;4143340;28;20536;-70
2022/09/26 00:47:27;;;;;;;;;;;25.70;99.90;;;;;;4141500;28;19933;-69
2022/09/26 00:52:41;;;;;;;;;;;25.80;99.90;;;;;;4142490;28;19948;-70
2022/09/26 00:55:03;;;;;;;;;;;25.80;99.90;;;;;;4142476;28;19956;-70
2022/09/26 00:57:27;;;;;;;;;;;25.80;99.90;;;;;;4142472;28;19971;-70
2022/09/26 01:07:21;;;;;;;;;;;25.80;99.90;;;;;;4143236;28;20028;-69
2022/09/26 01:15:07;;;;;;;;;;;25.80;99.90;;;;;;4142832;28;20051;-69
2022/09/26 01:17:32;;;;;;;;;;;25.90;99.90;;;;;;4141098;28;19926;-69
2022/09/26 01:20:11;;;;;;;;;;;25.90;99.90;;;;;;4140142;28;19926;-73
2022/09/26 01:22:38;;;;;;;;;;;25.90;99.90;;;;;;4143955;28;19979;-72
2022/09/26 01:25:07;;;;;;;;;;;25.90;99.90;;;;;;4142651;28;19925;-72
2022/09/26 01:30:25;;;;;;;;;;;26.10;99.90;;;;;;4141202;28;19925;-71
2022/09/26 01:32:48;;;;;;;;;;;26.20;99.90;;;;;;4141079;28;20015;-72
2022/09/26 01:35:30;;;;;;;;;;;26.30;99.90;;;;;;4142157;28;19925;-72
2022/09/26 01:38:00;;;;;;;;;;;26.30;99.90;;;;;;4140015;28;19935;-73
2022/09/26 01:40:09;;;;;;;;;;;26.20;99.90;;;;;;4171054;28;19967;-72
2022/09/26 01:42:30;;;;;;;;;;;26.20;99.90;;;;;;4171664;28;19932;-73
2022/09/26 01:49:47;;;;;;;;;;;26.20;99.90;;;;;;4139714;28;19933;-71
2022/09/26 01:52:05;;;;;;;;;;;26.20;99.90;;;;;;4170925;28;19933;-71
2022/09/26 01:54:37;;;;;;;;;;;26.40;99.90;;;;;;4141090;28;20374;-72
2022/09/26 01:59:40;;;;;;;;;;;26.40;99.90;;;;;;4141427;28;20020;-69
2022/09/26 02:01:58;;;;;;;;;;;26.50;99.90;;;;;;4170117;28;19969;-68
2022/09/26 02:07:07;;;;;;;;;;;26.60;99.90;;;;;;4140229;28;19967;-68
2022/09/26 02:11:52;;;;;;;;;;;26.80;99.90;;;;;;4145629;28;20470;-69
2022/09/26 02:14:05;;;;;;;;;;;26.90;99.90;;;;;;4159507;28;19925;-68
2022/09/26 02:16:47;;;;;;;;;;;26.90;99.90;;;;;;4144118;28;20410;-68
2022/09/26 02:19:19;;;;;;;;;;;26.90;99.90;;;;;;4145408;28;19936;-69
2022/09/26 02:21:46;;;;;;;;;;;27.00;99.90;;;;;;4158204;28;19936;-69
2022/09/26 02:31:36;;;;;;;;;;;27.00;99.90;;;;;;4132057;28;19925;-70
2022/09/26 02:33:53;;;;;;;;;;;27.20;99.90;;;;;;4160775;28;19932;-68
2022/09/26 02:36:14;;;;;;;;;;;27.20;99.90;;;;;;4179866;28;20002;-69
2022/09/26 02:46:07;;;;;;;;;;;27.20;99.90;;;;;;4178825;28;20412;-69
2022/09/26 02:56:03;;;;;;;;;;;27.50;99.90;;;;;;4143817;28;19925;-69
2022/09/26 02:58:26;;;;;;;;;;;27.70;99.90;;;;;;4148471;28;19925;-69
2022/09/26 03:00:40;;;;;;;;;;;27.70;99.90;;;;;;4179319;28;19924;-68
2022/09/26 03:08:02;;;;;;;;;;;27.70;99.90;;;;;;4147371;28;19949;-69
2022/09/26 03:10:20;;;;;;;;;;;27.90;99.90;;;;;;4147920;28;19921;-70
2022/09/26 03:12:49;;;;;;;;;;;28.00;99.90;;;;;;4146291;28;20330;-70
2022/09/26 03:14:53;;;;;;;;;;;28.10;99.90;;;;;;4146424;28;19932;-70
2022/09/26 03:17:02;;;;;;;;;;;28.10;99.90;;;;;;4146778;28;20338;-70
2022/09/26 03:19:21;;;;;;;;;;;28.20;99.90;;;;;;4178317;28;19928;-72
2022/09/26 03:24:05;;;;;;;;;;;27.90;99.90;;;;;;4162622;28;19929;-70
2022/09/26 03:26:48;;;;;;;;;;;27.80;99.90;;;;;;4129207;28;19933;-69
2022/09/26 03:31:54;;;;;;;;;;;27.90;99.90;;;;;;4147446;28;20273;-68
2022/09/26 03:34:16;;;;;;;;;;;28.00;99.90;;;;;;4147234;28;19972;-70
2022/09/26 03:36:24;;;;;;;;;;;28.20;99.90;;;;;;4177616;28;20496;-68
2022/09/26 03:38:38;;;;;;;;;;;28.20;99.90;;;;;;4145719;28;19967;-68
2022/09/26 03:41:11;;;;;;;;;;;28.10;99.90;;;;;;4149728;28;19921;-68
2022/09/26 03:43:25;;;;;;;;;;;28.10;99.90;;;;;;4147247;28;19930;-68
2022/09/26 03:45:31;;;;;;;;;;;28.20;99.90;;;;;;4178525;28;19951;-68
2022/09/26 03:47:45;;;;;;;;;;;28.40;99.90;;;;;;4145803;28;19922;-67
2022/09/26 03:49:50;;;;;;;;;;;28.40;99.90;;;;;;4146661;28;20011;-68
2022/09/26 03:51:55;;;;;;;;;;;28.50;99.90;;;;;;4178302;28;19924;-68
2022/09/26 03:54:00;;;;;;;;;;;28.50;99.90;;;;;;4177388;28;19990;-70
2022/09/26 03:56:09;;;;;;;;;;;28.50;99.90;;;;;;4160877;28;19964;-68
2022/09/26 03:58:15;;;;;;;;;;;28.50;99.90;;;;;;4146337;28;19972;-68
2022/09/26 04:00:19;;;;;;;;;;;28.50;99.90;;;;;;4144688;28;19929;-68
2022/09/26 04:02:26;;;;;;;;;;;28.60;99.90;;;;;;4160775;28;19964;-68
2022/09/26 04:04:47;;;;;;;;;;;28.80;99.90;;;;;;4144934;28;19953;-69
2022/09/26 04:06:52;;;;;;;;;;;28.80;99.90;;;;;;4177266;28;20007;-67
2022/09/26 04:09:01;;;;;;;;;;;28.90;99.90;;;;;;4157870;28;20303;-69
2022/09/26 04:11:11;;;;;;;;;;;28.90;99.90;;;;;;4160139;28;19932;-69
2022/09/26 04:13:18;;;;;;;;;;;28.90;99.90;;;;;;4160720;28;20563;-71
2022/09/26 04:15:42;;;;;;;;;;;29.00;99.90;;;;;;4145034;28;19925;-71
2022/09/26 04:17:48;;;;;;;;;;;29.10;99.90;;;;;;4145449;28;19921;-68
2022/09/26 04:19:53;;;;;;;;;;;29.00;99.90;;;;;;4145522;28;19968;-70
2022/09/26 04:21:58;;;;;;;;;;;29.00;99.90;;;;;;4169717;28;19924;-70
2022/09/26 04:24:06;;;;;;;;;;;29.00;99.90;;;;;;4160983;28;20031;-72
2022/09/26 04:26:22;;;;;;;;;;;29.00;99.90;;;;;;4144718;28;19991;-71
2022/09/26 04:28:27;;;;;;;;;;;29.00;99.90;;;;;;4177586;28;20292;-70
2022/09/26 04:30:33;;;;;;;;;;;29.10;99.90;;;;;;4145557;28;19932;-69
2022/09/26 04:32:42;;;;;;;;;;;29.20;99.90;;;;;;4171190;28;19921;-71
2022/09/26 04:35:03;;;;;;;;;;;29.30;99.90;;;;;;4139543;28;19933;-71
2022/09/26 04:37:12;;;;;;;;;;;29.30;99.90;;;;;;4160753;28;19921;-70
2022/09/26 04:39:26;;;;;;;;;;;29.40;99.90;;;;;;4175955;28;19921;-70
2022/09/26 04:41:40;;;;;;;;;;;29.40;99.90;;;;;;4146515;28;19963;-70
2022/09/26 04:44:06;;;;;;;;;;;29.60;99.90;;;;;;4170820;28;20392;-70
2022/09/26 04:46:15;;;;;;;;;;;29.70;99.90;;;;;;4176876;28;19925;-70
2022/09/26 04:48:26;;;;;;;;;;;29.70;99.90;;;;;;4161152;28;19991;-70
2022/09/26 04:50:53;;;;;;;;;;;29.60;99.90;;;;;;4159395;28;20020;-70
2022/09/26 04:52:59;;;;;;;;;;;29.70;99.90;;;;;;4145512;28;20388;-70
2022/09/26 04:55:04;;;;;;;;;;;29.70;99.90;;;;;;4144846;28;19976;-71
2022/09/26 04:57:09;;;;;;;;;;;29.70;99.90;;;;;;4161704;28;19921;-70
2022/09/26 04:59:19;;;;;;;;;;;29.70;99.90;;;;;;4146344;28;19937;-70
2022/09/26 05:01:31;;;;;;;;;;;29.80;99.90;;;;;;4144854;28;19987;-71
2022/09/26 05:03:41;;;;;;;;;;;29.80;99.90;;;;;;4161617;28;19968;-69
2022/09/26 05:05:53;;;;;;;;;;;29.90;99.90;;;;;;4177200;28;20032;-68
2022/09/26 05:07:57;;;;;;;;;;;29.90;99.90;;;;;;4175544;28;19929;-68
2022/09/26 05:10:02;;;;;;;;;;;30.00;99.90;;;;;;4176653;28;20333;-69
2022/09/26 05:12:32;;;;;;;;;;;30.10;99.90;;;;;;4159004;28;19975;-68
2022/09/26 05:14:44;;;;;;;;;;;30.20;99.90;;;;;;4175710;28;20398;-70
2022/09/26 05:17:01;;;;;;;;;;;30.30;99.90;;;;;;4172572;28;20004;-69
2022/09/26 05:19:08;;;;;;;;;;;30.30;99.90;;;;;;4176664;28;19959;-71
2022/09/26 05:21:24;;;;;;;;;;;30.20;99.90;;;;;;4143586;28;19925;-69
2022/09/26 05:28:05;;;;;;;;;;;30.30;99.90;;;;;;4161965;28;19924;-69
2022/09/26 05:30:11;;;;;;;;;;;30.30;99.90;;;;;;4145718;28;19969;-72
2022/09/26 05:32:19;;;;;;;;;;;30.40;99.90;;;;;;4174610;28;19927;-71
2022/09/26 05:34:25;;;;;;;;;;;30.50;99.90;;;;;;4160871;28;20573;-72
2022/09/26 05:36:29;;;;;;;;;;;30.60;99.90;;;;;;4160817;28;20016;-71
2022/09/26 05:38:36;;;;;;;;;;;30.70;99.90;;;;;;4160978;28;19931;-70
2022/09/26 05:43:01;;;;;;;;;;;30.50;99.90;;;;;;4176844;28;19925;-71
2022/09/26 05:45:07;;;;;;;;;;;30.40;99.90;;;;;;4177082;28;19980;-72
2022/09/26 05:47:11;;;;;;;;;;;30.30;99.90;;;;;;4161175;28;19925;-71
2022/09/26 05:49:16;;;;;;;;;;;30.40;99.90;;;;;;4161106;28;19924;-71
2022/09/26 05:51:20;;;;;;;;;;;30.40;99.90;;;;;;4160984;28;20537;-70
2022/09/26 05:53:26;;;;;;;;;;;30.50;99.90;;;;;;4145594;28;19952;-73
2022/09/26 05:55:30;;;;;;;;;;;30.60;99.90;;;;;;4177038;28;19927;-73
2022/09/26 05:57:57;;;;;;;;;;;30.70;99.90;;;;;;4144895;28;19932;-74
2022/09/26 06:00:20;;;;;;;;;;;30.90;99.90;;;;;;4144766;28;19964;-73
2022/09/26 06:02:24;;;;;;;;;;;31.00;99.90;;;;;;4145459;28;19932;-74
2022/09/26 06:04:49;;;;;;;;;;;30.90;99.90;;;;;;4177138;28;20616;-74
2022/09/26 06:07:13;;;;;;;;;;;30.70;99.90;;;;;;4145190;28;20566;-74
2022/09/26 06:09:17;;;;;;;;;;;30.90;99.90;;;;;;4160844;28;19921;-73
2022/09/26 06:11:29;;;;;;;;;;;30.80;99.90;;;;;;4145173;28;20410;-73
2022/09/26 06:13:47;;;;;;;;;;;30.80;99.90;;;;;;4144019;28;20441;-73
2022/09/26 06:15:51;;;;;;;;;;;30.70;99.90;;;;;;4159999;28;19983;-74
2022/09/26 06:18:13;;;;;;;;;;;30.70;99.90;;;;;;4144648;28;19919;-74
2022/09/26 06:20:21;;;;;;;;;;;30.80;99.90;;;;;;4171121;28;20014;-74
2022/09/26 06:22:25;;;;;;;;;;;30.80;99.90;;;;;;4144799;28;19926;-73
2022/09/26 06:24:30;;;;;;;;;;;30.90;99.90;;;;;;4177332;28;19921;-75
2022/09/26 06:26:45;;;;;;;;;;;31.00;99.90;;;;;;4175221;28;19952;-74
2022/09/26 06:28:58;;;;;;;;;;;30.90;99.90;;;;;;4145044;28;20331;-75
2022/09/26 06:31:14;;;;;;;;;;;31.00;99.70;;;;;;4144767;28;19928;-73
2022/09/26 06:33:54;;;;;;;;;;;31.10;99.60;;;;;;4158860;28;19925;-74
2022/09/26 06:36:10;;;;;;;;;;;31.20;99.30;;;;;;4162122;28;20374;-73
2022/09/26 06:38:14;;;;;;;;;;;31.30;99.30;;;;;;4176702;28;19921;-74
2022/09/26 06:40:18;;;;;;;;;;;31.40;99.40;;;;;;4145545;28;19921;-74
2022/09/26 06:42:24;;;;;;;;;;;31.40;99.90;;;;;;4145502;28;19925;-73
2022/09/26 06:44:40;;;;;;;;;;;31.20;99.30;;;;;;4145750;28;20570;-74
2022/09/26 06:46:59;;;;;;;;;;;31.10;98.80;;;;;;4145117;28;19928;-73
2022/09/26 06:49:09;;;;;;;;;;;30.90;99.90;;;;;;4141796;28;19960;-73
2022/09/26 06:51:18;;;;;;;;;;;30.80;99.90;;;;;;4142785;28;19953;-73
2022/09/26 06:53:23;;;;;;;;;;;30.80;99.90;;;;;;4141953;28;20277;-73
2022/09/26 06:55:27;;;;;;;;;;;30.80;99.90;;;;;;4177685;28;19924;-73
2022/09/26 06:57:38;;;;;;;;;;;30.80;99.90;;;;;;4162408;28;19929;-73
2022/09/26 06:59:43;;;;;;;;;;;30.80;99.90;;;;;;4144058;28;19921;-73
2022/09/26 07:01:55;;;;;;;;;;;30.80;99.90;;;;;;4162616;28;19929;-74
2022/09/26 07:04:12;;;;;;;;;;;30.90;99.90;;;;;;4148421;28;20047;-74
2022/09/26 07:06:29;;;;;;;;;;;31.00;99.90;;;;;;4146690;28;19929;-74
2022/09/26 07:08:36;;;;;;;;;;;31.00;99.90;;;;;;4163365;28;19931;-74
2022/09/26 07:11:21;;;;;;;;;;;31.00;99.90;;;;;;4147934;28;19929;-74
2022/09/26 07:13:46;;;;;;;;;;;31.00;99.90;;;;;;4148319;28;19975;-74
2022/09/26 07:15:50;;;;;;;;;;;31.00;99.90;;;;;;4179714;28;20562;-74
2022/09/26 07:18:05;;;;;;;;;;;31.10;99.90;;;;;;4179995;28;19963;-75
2022/09/26 07:20:22;;;;;;;;;;;31.10;99.90;;;;;;4148222;28;19987;-74
2022/09/26 07:22:38;;;;;;;;;;;31.20;99.90;;;;;;4148580;28;19925;-75
2022/09/26 07:24:45;;;;;;;;;;;31.30;99.60;;;;;;4150342;28;19925;-75
2022/09/26 07:26:49;;;;;;;;;;;31.30;99.70;;;;;;4149628;28;20372;-73
2022/09/26 07:28:55;;;;;;;;;;;31.40;99.40;;;;;;4179491;28;19921;-73
2022/09/26 07:31:02;;;;;;;;;;;31.20;98.50;;;;;;4179197;28;19955;-73
2022/09/26 07:33:19;;;;;;;;;;;31.20;98.60;;;;;;4161397;28;20000;-74
2022/09/26 07:35:34;;;;;;;;;;;31.10;98.10;;;;;;4177687;28;19928;-72
2022/09/26 07:37:53;;;;;;;;;;;31.10;99.00;;;;;;4147549;28;19925;-74
2022/09/26 07:40:00;;;;;;;;;;;31.20;98.40;;;;;;4147187;28;20012;-73
2022/09/26 07:42:20;;;;;;;;;;;31.20;97.80;;;;;;4160818;28;19925;-72
2022/09/26 07:44:26;;;;;;;;;;;31.30;98.00;;;;;;4146145;28;20364;-72
2022/09/26 07:51:37;;;;;;;;;;;31.30;97.70;;;;;;4136857;28;19929;-72
2022/09/26 07:53:46;;;;;;;;;;;31.40;98.40;;;;;;4179159;28;20318;-73
2022/09/26 07:56:11;;;;;;;;;;;31.40;99.00;;;;;;4147186;28;19926;-71
2022/09/26 07:58:27;;;;;;;;;;;30.90;99.20;;;;;;4147116;28;20012;-72
2022/09/26 08:00:51;;;;;;;;;;;30.50;99.90;;;;;;4147454;28;19963;-72
2022/09/26 08:03:19;;;;;;;;;;;30.30;99.90;;;;;;4147535;28;20040;-74
2022/09/26 08:05:25;;;;;;;;;;;30.40;99.90;;;;;;4178824;28;19925;-74
2022/09/26 08:07:31;;;;;;;;;;;30.20;99.90;;;;;;4195225;28;19925;-73
2022/09/26 08:09:43;;;;;;;;;;;30.10;99.90;;;;;;4162780;28;19921;-72
2022/09/26 08:12:01;;;;;;;;;;;30.20;99.90;;;;;;4147767;28;19971;-74
2022/09/26 08:14:25;;;;;;;;;;;30.20;99.90;;;;;;4146628;28;19975;-73
2022/09/26 08:16:47;;;;;;;;;;;30.20;99.90;;;;;;4177430;28;19921;-70
2022/09/26 08:18:52;;;;;;;;;;;30.20;99.90;;;;;;4178415;28;19924;-71
2022/09/26 08:20:58;;;;;;;;;;;30.30;99.90;;;;;;4162115;28;19955;-71
2022/09/26 08:23:05;;;;;;;;;;;30.20;98.70;;;;;;4178221;28;19927;-71
2022/09/26 08:25:10;;;;;;;;;;;30.30;99.70;;;;;;4145219;28;20021;-69
2022/09/26 08:27:33;;;;;;;;;;;30.10;99.90;;;;;;4178049;28;19921;-68
2022/09/26 08:29:37;;;;;;;;;;;30.20;99.90;;;;;;4160946;28;19924;-69
2022/09/26 08:31:44;;;;;;;;;;;30.20;99.90;;;;;;4145055;28;19929;-68
2022/09/26 08:33:49;;;;;;;;;;;30.30;99.90;;;;;;4177909;28;19921;-68
2022/09/26 08:35:54;;;;;;;;;;;30.40;99.80;;;;;;4174940;28;19978;-70
2022/09/26 08:38:13;;;;;;;;;;;30.40;99.80;;;;;;4161848;28;20350;-70
2022/09/26 08:40:58;;;;;;;;;;;30.30;99.90;;;;;;4146554;28;19980;-70
2022/09/26 08:43:28;;;;;;;;;;;30.30;99.90;;;;;;4146712;28;20533;-71
2022/09/26 08:48:39;;;;;;;;;;;30.20;99.90;;;;;;4160638;28;19927;-73
2022/09/26 08:51:05;;;;;;;;;;;30.10;99.90;;;;;;4175337;28;19927;-70
2022/09/26 08:53:12;;;;;;;;;;;30.10;99.90;;;;;;4178468;28;19925;-72
2022/09/26 08:55:23;;;;;;;;;;;30.20;99.90;;;;;;4178129;28;19963;-71
2022/09/26 08:57:47;;;;;;;;;;;30.10;99.90;;;;;;4146064;28;20303;-74
2022/09/26 08:59:52;;;;;;;;;;;30.00;99.70;;;;;;4146064;28;20019;-71
2022/09/26 09:02:00;;;;;;;;;;;29.90;99.90;;;;;;4171191;28;19999;-72
2022/09/26 09:04:30;;;;;;;;;;;29.90;99.90;;;;;;4156802;28;20335;-73
2022/09/26 09:06:35;;;;;;;;;;;29.90;99.90;;;;;;4141844;28;20451;-70
2022/09/26 09:08:39;;;;;;;;;;;29.80;99.90;;;;;;4174252;28;20732;-70
2022/09/26 09:11:12;;;;;;;;;;;29.80;99.90;;;;;;4174619;28;19959;-70
2022/09/26 09:13:37;;;;;;;;;;;29.80;99.90;;;;;;4142504;28;20709;-71
2022/09/26 09:16:06;;;;;;;;;;;29.80;99.90;;;;;;4139045;28;20016;-71
2022/09/26 09:18:29;;;;;;;;;;;29.90;99.90;;;;;;4143228;28;19925;-71
2022/09/26 09:20:58;;;;;;;;;;;29.70;99.90;;;;;;4141598;28;19979;-70
2022/09/26 09:23:19;;;;;;;;;;;29.60;99.90;;;;;;4127213;28;19926;-72
2022/09/26 09:25:30;;;;;;;;;;;29.50;99.90;;;;;;4158434;28;19943;-71
2022/09/26 09:27:38;;;;;;;;;;;29.50;99.90;;;;;;4170035;28;19924;-69
2022/09/26 09:30:08;;;;;;;;;;;29.50;99.90;;;;;;4175060;28;20554;-71
2022/09/26 09:32:33;;;;;;;;;;;29.50;99.90;;;;;;4141054;28;20376;-75
2022/09/26 09:34:52;;;;;;;;;;;29.50;99.90;;;;;;4158997;28;20386;-71
2022/09/26 09:37:17;;;;;;;;;;;29.50;99.90;;;;;;4142764;28;19925;-73
2022/09/26 09:39:36;;;;;;;;;;;29.30;99.90;;;;;;4170748;28;19924;-73
2022/09/26 09:41:50;;;;;;;;;;;29.30;99.90;;;;;;4142841;28;20096;-71
2022/09/26 09:44:02;;;;;;;;;;;29.30;99.90;;;;;;4157974;28;20379;-73
2022/09/26 09:46:16;;;;;;;;;;;29.30;99.90;;;;;;4145142;28;20015;-74
2022/09/26 09:48:20;;;;;;;;;;;29.30;99.90;;;;;;4143906;28;19940;-75
2022/09/26 09:50:44;;;;;;;;;;;29.30;99.90;;;;;;4146208;28;19929;-73
2022/09/26 09:52:54;;;;;;;;;;;29.30;99.90;;;;;;4176471;28;19924;-74
2022/09/26 09:55:23;;;;;;;;;;;29.30;99.90;;;;;;4171864;28;20019;-74
2022/09/26 09:57:38;;;;;;;;;;;29.40;99.90;;;;;;4174355;28;20291;-72
2022/09/26 09:59:56;;;;;;;;;;;29.30;99.90;;;;;;4142924;28;19925;-74
2022/09/26 10:02:20;;;;;;;;;;;29.30;99.90;;;;;;4141257;28;19957;-72
2022/09/26 10:04:37;;;;;;;;;;;29.20;99.90;;;;;;4157464;28;19932;-73
2022/09/26 10:06:45;;;;;;;;;;;29.10;99.90;;;;;;4174180;28;19925;-74
2022/09/26 10:08:54;;;;;;;;;;;29.10;99.90;;;;;;4158260;28;19928;-73
2022/09/26 10:11:30;;;;;;;;;;;29.10;99.90;;;;;;4169871;28;19932;-72
2022/09/26 10:13:48;;;;;;;;;;;29.10;99.90;;;;;;4156727;28;19925;-72
2022/09/26 10:16:01;;;;;;;;;;;29.10;99.90;;;;;;4152685;28;20701;-72
2022/09/26 10:18:22;;;;;;;;;;;29.20;99.90;;;;;;4154960;28;19925;-71
2022/09/26 10:20:41;;;;;;;;;;;29.10;99.90;;;;;;4141569;28;20837;-72
2022/09/26 10:22:45;;;;;;;;;;;29.10;99.90;;;;;;4141132;28;19932;-73
2022/09/26 10:24:59;;;;;;;;;;;29.10;99.90;;;;;;4171907;28;19932;-72
2022/09/26 10:27:17;;;;;;;;;;;29.10;99.90;;;;;;4141478;28;19925;-73
2022/09/26 10:29:23;;;;;;;;;;;29.00;99.90;;;;;;4174421;28;19924;-73
2022/09/26 10:31:28;;;;;;;;;;;29.00;99.90;;;;;;4176371;28;19925;-74
2022/09/26 10:33:44;;;;;;;;;;;29.00;99.90;;;;;;4143478;28;20473;-75
2022/09/26 10:35:51;;;;;;;;;;;29.00;99.90;;;;;;4147156;28;19925;-75
2022/09/26 10:38:00;;;;;;;;;;;28.90;99.90;;;;;;4177900;28;19963;-74
2022/09/26 10:42:34;;;;;;;;;;;28.90;99.90;;;;;;4176531;28;20355;-72
2022/09/26 10:44:38;;;;;;;;;;;28.80;99.90;;;;;;4179079;28;20012;-73
2022/09/26 10:46:56;;;;;;;;;;;28.80;99.90;;;;;;4141449;28;19925;-74
2022/09/26 10:49:35;;;;;;;;;;;28.90;99.90;;;;;;4145274;28;19995;-73
2022/09/26 10:52:02;;;;;;;;;;;28.80;99.90;;;;;;4144577;28;19971;-72
2022/09/26 10:54:10;;;;;;;;;;;28.70;99.90;;;;;;4141273;28;20567;-71
2022/09/26 10:56:24;;;;;;;;;;;28.70;99.90;;;;;;4159437;28;19987;-71
2022/09/26 10:58:39;;;;;;;;;;;28.70;99.90;;;;;;4143321;28;19932;-72
2022/09/26 11:00:58;;;;;;;;;;;28.70;99.90;;;;;;4189466;28;19924;-74
2022/09/26 11:03:11;;;;;;;;;;;28.70;99.90;;;;;;4142666;28;19932;-74
2022/09/26 11:08:02;;;;;;;;;;;28.70;99.90;;;;;;4176379;28;20398;-71
2022/09/26 11:10:13;;;;;;;;;;;28.70;99.90;;;;;;4144772;28;19925;-72
2022/09/26 11:12:28;;;;;;;;;;;28.70;99.90;;;;;;4144107;28;20015;-72
2022/09/26 11:14:44;;;;;;;;;;;28.70;99.90;;;;;;4177141;28;19921;-72
2022/09/26 11:16:53;;;;;;;;;;;28.70;99.90;;;;;;4160420;28;19979;-72
2022/09/26 11:19:10;;;;;;;;;;;28.70;99.90;;;;;;4177213;28;19931;-73
2022/09/26 11:21:27;;;;;;;;;;;28.70;99.90;;;;;;4161618;28;19928;-72
2022/09/26 11:23:46;;;;;;;;;;;28.70;99.90;;;;;;4160777;28;19963;-74
2022/09/26 11:26:06;;;;;;;;;;;28.60;99.90;;;;;;4145061;28;19921;-74
2022/09/26 11:28:22;;;;;;;;;;;28.60;99.90;;;;;;4160155;28;19925;-74
2022/09/26 11:30:40;;;;;;;;;;;28.50;99.90;;;;;;4145045;28;19989;-73
2022/09/26 11:32:51;;;;;;;;;;;28.50;99.90;;;;;;4159826;28;19932;-72
2022/09/26 11:35:25;;;;;;;;;;;28.50;99.90;;;;;;4144952;28;20024;-71
2022/09/26 11:37:49;;;;;;;;;;;28.40;99.90;;;;;;4160328;28;19939;-71
2022/09/26 11:40:15;;;;;;;;;;;28.40;99.90;;;;;;4175407;28;20330;-73
2022/09/26 11:42:31;;;;;;;;;;;28.40;99.90;;;;;;4175549;28;19928;-72
2022/09/26 11:45:03;;;;;;;;;;;28.40;99.90;;;;;;4160169;28;19925;-71
2022/09/26 11:47:49;;;;;;;;;;;28.40;99.90;;;;;;4145804;28;19922;-71
2022/09/26 11:50:19;;;;;;;;;;;28.40;99.90;;;;;;4143353;28;19925;-71
2022/09/26 11:52:59;;;;;;;;;;;28.40;99.90;;;;;;4144662;28;19931;-71
2022/09/26 11:55:16;;;;;;;;;;;28.40;99.90;;;;;;4145279;28;19925;-71
2022/09/26 11:57:33;;;;;;;;;;;28.40;99.90;;;;;;4143629;28;19925;-72
2022/09/26 12:00:05;;;;;;;;;;;28.40;99.90;;;;;;4144864;28;19980;-72
2022/09/26 12:02:47;;;;;;;;;;;28.40;99.90;;;;;;4144268;28;19925;-72
2022/09/26 12:05:06;;;;;;;;;;;28.30;99.90;;;;;;4159640;28;19956;-71
2022/09/26 12:07:43;;;;;;;;;;;28.40;99.90;;;;;;4143718;28;19948;-71
2022/09/26 12:10:17;;;;;;;;;;;28.40;99.90;;;;;;4142941;28;19929;-72
2022/09/26 12:12:40;;;;;;;;;;;28.40;99.90;;;;;;4136458;28;20450;-71
2022/09/26 12:15:08;;;;;;;;;;;28.40;99.90;;;;;;4144438;28;20304;-73
2022/09/26 12:17:33;;;;;;;;;;;28.40;99.90;;;;;;4140016;28;19987;-72
2022/09/26 12:19:45;;;;;;;;;;;28.40;99.90;;;;;;4144324;28;19929;-72
2022/09/26 12:24:52;;;;;;;;;;;28.30;99.90;;;;;;4144344;28;20396;-73
2022/09/26 12:27:05;;;;;;;;;;;28.30;99.90;;;;;;4142023;28;20454;-72
2022/09/26 12:29:37;;;;;;;;;;;28.30;99.90;;;;;;4143907;28;19922;-73
2022/09/26 12:31:55;;;;;;;;;;;28.30;99.90;;;;;;4136570;28;19979;-72
2022/09/26 12:34:19;;;;;;;;;;;28.30;99.90;;;;;;4143479;28;19925;-71
2022/09/26 12:36:48;;;;;;;;;;;28.30;99.90;;;;;;4141646;28;19925;-72
2022/09/26 12:39:24;;;;;;;;;;;28.20;99.90;;;;;;4170412;28;19925;-72
2022/09/26 12:41:50;;;;;;;;;;;28.20;99.90;;;;;;4143995;28;20649;-72
2022/09/26 12:44:15;;;;;;;;;;;28.20;99.90;;;;;;4143755;28;19929;-73
2022/09/26 12:46:41;;;;;;;;;;;28.20;99.90;;;;;;4143920;28;19933;-71
2022/09/26 12:49:06;;;;;;;;;;;28.10;99.90;;;;;;4143848;28;19987;-73
2022/09/26 12:51:42;;;;;;;;;;;28.10;99.90;;;;;;4141380;28;19925;-70
2022/09/26 12:53:57;;;;;;;;;;;28.10;99.90;;;;;;4143865;28;19925;-71
2022/09/26 12:56:08;;;;;;;;;;;28.20;99.90;;;;;;4143686;28;20430;-72
2022/09/26 12:58:30;;;;;;;;;;;28.20;99.90;;;;;;4144110;28;19999;-72
2022/09/26 13:00:39;;;;;;;;;;;28.00;99.90;;;;;;4143836;28;20624;-70
2022/09/26 13:03:10;;;;;;;;;;;28.00;99.90;;;;;;4143191;28;20353;-70
2022/09/26 13:05:29;;;;;;;;;;;28.00;99.90;;;;;;4143387;28;20335;-70
2022/09/26 13:07:42;;;;;;;;;;;27.90;99.90;;;;;;4142642;28;19925;-71
2022/09/26 13:10:03;;;;;;;;;;;28.00;99.90;;;;;;4174484;28;19968;-69
2022/09/26 13:12:25;;;;;;;;;;;28.00;99.90;;;;;;4144422;28;20277;-71
2022/09/26 13:14:45;;;;;;;;;;;28.00;99.90;;;;;;4144227;28;19925;-70
2022/09/26 13:17:04;;;;;;;;;;;28.00;99.90;;;;;;4174806;28;19921;-70
2022/09/26 13:19:26;;;;;;;;;;;28.00;99.90;;;;;;4171888;28;19925;-70
2022/09/26 13:21:45;;;;;;;;;;;28.00;99.90;;;;;;4139683;28;19925;-71
2022/09/26 13:23:57;;;;;;;;;;;28.00;99.90;;;;;;4142923;28;19944;-71
2022/09/26 13:26:14;;;;;;;;;;;27.90;99.90;;;;;;4143707;28;19929;-70
2022/09/26 13:28:37;;;;;;;;;;;27.90;99.90;;;;;;4143601;28;20291;-71
2022/09/26 13:31:17;;;;;;;;;;;27.80;99.90;;;;;;4143383;28;19925;-71
2022/09/26 13:33:25;;;;;;;;;;;27.90;99.90;;;;;;4141582;28;19933;-70
2022/09/26 13:35:32;;;;;;;;;;;27.90;99.90;;;;;;4142662;28;19925;-71
2022/09/26 13:37:39;;;;;;;;;;;27.80;99.90;;;;;;4143662;28;19951;-72
2022/09/26 13:39:49;;;;;;;;;;;27.60;99.90;;;;;;4143389;28;20363;-71
2022/09/26 13:42:00;;;;;;;;;;;27.70;99.90;;;;;;4143483;28;20016;-71
2022/09/26 13:44:17;;;;;;;;;;;27.60;99.90;;;;;;4143301;28;19925;-70
2022/09/26 13:46:35;;;;;;;;;;;27.60;99.90;;;;;;4143349;28;20395;-70
2022/09/26 13:48:45;;;;;;;;;;;27.70;99.90;;;;;;4143119;28;19968;-70
2022/09/26 13:50:54;;;;;;;;;;;27.60;99.90;;;;;;4142936;28;19929;-71
2022/09/26 13:53:09;;;;;;;;;;;27.60;99.90;;;;;;4143290;28;19925;-70
2022/09/26 13:55:17;;;;;;;;;;;27.60;99.90;;;;;;4142373;28;19925;-70
2022/09/26 13:57:33;;;;;;;;;;;27.60;99.90;;;;;;4143328;28;19929;-71
2022/09/26 13:59:50;;;;;;;;;;;27.60;99.90;;;;;;4143160;28;19932;-72
2022/09/26 14:02:07;;;;;;;;;;;27.60;99.90;;;;;;4142944;28;19932;-70
2022/09/26 14:04:18;;;;;;;;;;;27.70;99.90;;;;;;4143471;28;19932;-71
2022/09/26 14:06:26;;;;;;;;;;;27.70;99.90;;;;;;4146197;28;20036;-71
2022/09/26 14:10:55;;;;;;;;;;;27.60;99.90;;;;;;4146419;28;20016;-71
2022/09/26 14:13:07;;;;;;;;;;;27.60;99.90;;;;;;4144935;28;19925;-71
2022/09/26 14:15:16;;;;;;;;;;;27.60;99.90;;;;;;4146711;28;20608;-71
2022/09/26 14:17:32;;;;;;;;;;;27.60;99.90;;;;;;4145822;28;19925;-71
2022/09/26 14:19:38;;;;;;;;;;;27.70;99.90;;;;;;4146266;28;19984;-70
2022/09/26 14:22:04;;;;;;;;;;;27.60;99.90;;;;;;4144490;28;19925;-69
2022/09/26 14:24:29;;;;;;;;;;;27.60;99.90;;;;;;4146374;28;19932;-70
2022/09/26 14:27:00;;;;;;;;;;;27.60;99.90;;;;;;4146596;28;20029;-70
2022/09/26 14:29:44;;;;;;;;;;;27.60;99.90;;;;;;4173156;28;19951;-71
2022/09/26 14:31:56;;;;;;;;;;;27.40;99.90;;;;;;4146503;28;20399;-71
2022/09/26 14:34:19;;;;;;;;;;;27.40;99.90;;;;;;4146373;28;20031;-70
2022/09/26 14:36:30;;;;;;;;;;;27.40;99.90;;;;;;4145006;28;19944;-71
2022/09/26 14:38:34;;;;;;;;;;;27.40;99.90;;;;;;4146538;28;19995;-71
2022/09/26 14:40:38;;;;;;;;;;;27.40;99.90;;;;;;4177657;28;19925;-71
2022/09/26 14:42:47;;;;;;;;;;;27.40;99.90;;;;;;4146656;28;19968;-71
2022/09/26 14:44:57;;;;;;;;;;;27.40;99.90;;;;;;4146342;28;19931;-70
2022/09/26 14:47:03;;;;;;;;;;;27.30;99.90;;;;;;4146292;28;20312;-71
2022/09/26 14:49:14;;;;;;;;;;;27.30;99.90;;;;;;4146456;28;20343;-71
2022/09/26 14:51:21;;;;;;;;;;;27.30;99.90;;;;;;4146093;28;20654;-71
2022/09/26 14:53:40;;;;;;;;;;;27.30;99.90;;;;;;4145991;28;19933;-71
2022/09/26 14:55:57;;;;;;;;;;;27.30;99.90;;;;;;4146251;28;19925;-71
2022/09/26 14:58:14;;;;;;;;;;;27.40;99.90;;;;;;4146185;28;20540;-71
2022/09/26 15:00:30;;;;;;;;;;;27.30;99.90;;;;;;4146198;28;19992;-71
2022/09/26 15:02:39;;;;;;;;;;;27.40;99.90;;;;;;4146098;28;19980;-71
2022/09/26 15:04:46;;;;;;;;;;;27.30;99.90;;;;;;4145980;28;20019;-71
2022/09/26 15:06:51;;;;;;;;;;;27.30;99.90;;;;;;4145625;28;19929;-71
2022/09/26 15:08:58;;;;;;;;;;;27.30;99.90;;;;;;4145502;28;19965;-72